RYR7BA GCLP-GMMX
Flight info
| Callsign | RYR7BA |
|---|---|
| Flight time | 1h 6m |
| Altitude | 36000 |
| Route | KORAL UG5 SONSO UG664 ADM UG850 LISRA |
| Aircraft | B738/M-SDE2E3FGHIRWXY/LB1 |
Departure
| Time | 2026-05-08 15:28 |
|---|---|
| Airport | Gran Canaria Airport (GCLP) |
Arrival
| Time | 2026-05-08 16:35 |
|---|---|
| Airport | Marrakesh Menara Airport (GMMX) |
| Time | Latitude | Longitude | Altitude | Speed | Heading |
|---|---|---|---|---|---|
| 2026-05-08 15:18 | 27.92962 | -15.39034 | 81 ft | 0 kts | 291° |
| 2026-05-08 15:24 | 27.92964 | -15.39038 | 81 ft | 2 kts | 291° |
| 2026-05-08 15:24 | 27.92974 | -15.39072 | 83 ft | 7 kts | 279° |
| 2026-05-08 15:24 | 27.92940 | -15.39117 | 85 ft | 10 kts | 205° |
| 2026-05-08 15:24 | 27.92872 | -15.39094 | 84 ft | 13 kts | 120° |
| 2026-05-08 15:25 | 27.92801 | -15.39033 | 83 ft | 14 kts | 186° |
| 2026-05-08 15:25 | 27.92708 | -15.39070 | 87 ft | 14 kts | 201° |
| 2026-05-08 15:25 | 27.92621 | -15.39108 | 90 ft | 13 kts | 201° |
| 2026-05-08 15:25 | 27.92537 | -15.39144 | 92 ft | 13 kts | 201° |
| 2026-05-08 15:26 | 27.92454 | -15.39181 | 96 ft | 13 kts | 201° |
| 2026-05-08 15:26 | 27.92372 | -15.39217 | 98 ft | 13 kts | 201° |
| 2026-05-08 15:26 | 27.92293 | -15.39253 | 98 ft | 12 kts | 201° |
| 2026-05-08 15:26 | 27.92208 | -15.39290 | 100 ft | 14 kts | 200° |
| 2026-05-08 15:27 | 27.92095 | -15.39305 | 93 ft | 19 kts | 181° |
| 2026-05-08 15:27 | 27.91954 | -15.39289 | 88 ft | 22 kts | 161° |
| 2026-05-08 15:27 | 27.91872 | -15.39142 | 85 ft | 23 kts | 110° |
| 2026-05-08 15:27 | 27.91909 | -15.38995 | 74 ft | 24 kts | 24° |
| 2026-05-08 15:28 | 27.92199 | -15.38869 | 59 ft | 79 kts | 21° |
| 2026-05-08 15:28 | 27.92923 | -15.38549 | 45 ft | 141 kts | 21° |
| 2026-05-08 15:28 | 27.93918 | -15.38107 | 495 ft | 157 kts | 22° |
| 2026-05-08 15:28 | 27.94958 | -15.37647 | 1142 ft | 167 kts | 20° |
| 2026-05-08 15:29 | 27.96092 | -15.37169 | 1758 ft | 176 kts | 19° |
| 2026-05-08 15:29 | 27.97329 | -15.36674 | 2068 ft | 205 kts | 18° |
| 2026-05-08 15:29 | 27.98744 | -15.36111 | 2336 ft | 226 kts | 17° |
| 2026-05-08 15:29 | 28.00287 | -15.35489 | 2661 ft | 243 kts | 18° |
| 2026-05-08 15:30 | 28.01961 | -15.34807 | 3004 ft | 264 kts | 18° |
| 2026-05-08 15:30 | 28.03702 | -15.34093 | 3669 ft | 268 kts | 18° |
| 2026-05-08 15:30 | 28.05455 | -15.33349 | 3975 ft | 272 kts | 19° |
| 2026-05-08 15:30 | 28.07046 | -15.32179 | 4273 ft | 282 kts | 49° |
| 2026-05-08 15:31 | 28.08189 | -15.30363 | 5066 ft | 285 kts | 54° |
| 2026-05-08 15:31 | 28.09305 | -15.28494 | 5841 ft | 289 kts | 54° |
| 2026-05-08 15:31 | 28.10455 | -15.26568 | 6465 ft | 299 kts | 54° |
| 2026-05-08 15:31 | 28.11631 | -15.24611 | 7226 ft | 302 kts | 53° |
| 2026-05-08 15:32 | 28.12827 | -15.22633 | 7965 ft | 307 kts | 53° |
| 2026-05-08 15:32 | 28.14051 | -15.20622 | 8725 ft | 313 kts | 52° |
| 2026-05-08 15:32 | 28.15301 | -15.18576 | 9475 ft | 319 kts | 52° |
| 2026-05-08 15:32 | 28.16580 | -15.16490 | 10218 ft | 325 kts | 52° |
| 2026-05-08 15:33 | 28.17915 | -15.14321 | 10539 ft | 348 kts | 52° |
| 2026-05-08 15:33 | 28.19345 | -15.12003 | 10827 ft | 368 kts | 52° |
| 2026-05-08 15:33 | 28.20824 | -15.09598 | 11452 ft | 375 kts | 52° |
| 2026-05-08 15:33 | 28.22327 | -15.07152 | 12308 ft | 381 kts | 52° |
| 2026-05-08 15:34 | 28.23843 | -15.04681 | 13247 ft | 383 kts | 52° |
| 2026-05-08 15:34 | 28.25378 | -15.02180 | 14022 ft | 389 kts | 52° |
| 2026-05-08 15:34 | 28.26935 | -14.99643 | 14683 ft | 396 kts | 52° |
| 2026-05-08 15:34 | 28.28523 | -14.97057 | 15342 ft | 402 kts | 52° |
| 2026-05-08 15:35 | 28.30133 | -14.94432 | 16016 ft | 409 kts | 53° |
| 2026-05-08 15:35 | 28.31767 | -14.91769 | 16744 ft | 413 kts | 53° |
| 2026-05-08 15:35 | 28.33418 | -14.89074 | 17421 ft | 419 kts | 53° |
| 2026-05-08 15:35 | 28.35098 | -14.86331 | 18063 ft | 426 kts | 53° |
| 2026-05-08 15:36 | 28.36800 | -14.83550 | 18656 ft | 432 kts | 53° |
| 2026-05-08 15:36 | 28.37938 | -14.81689 | 19040 ft | 435 kts | 53° |
| 2026-05-08 15:36 | 28.40269 | -14.77890 | 19825 ft | 441 kts | 52° |
| 2026-05-08 15:36 | 28.42009 | -14.75052 | 20410 ft | 446 kts | 52° |
| 2026-05-08 15:37 | 28.43813 | -14.72102 | 20986 ft | 451 kts | 52° |
| 2026-05-08 15:37 | 28.45595 | -14.69190 | 21538 ft | 457 kts | 52° |
| 2026-05-08 15:37 | 28.47420 | -14.66205 | 22057 ft | 463 kts | 52° |
| 2026-05-08 15:37 | 28.49257 | -14.63177 | 22599 ft | 467 kts | 52° |
| 2026-05-08 15:38 | 28.51107 | -14.60122 | 23145 ft | 472 kts | 52° |
| 2026-05-08 15:38 | 28.52981 | -14.57029 | 23658 ft | 477 kts | 52° |
| 2026-05-08 15:38 | 28.54871 | -14.53913 | 24064 ft | 482 kts | 52° |
| 2026-05-08 15:38 | 28.56784 | -14.50762 | 24532 ft | 485 kts | 52° |
| 2026-05-08 15:39 | 28.58705 | -14.47597 | 25014 ft | 487 kts | 52° |
| 2026-05-08 15:39 | 28.60637 | -14.44412 | 25473 ft | 490 kts | 52° |
| 2026-05-08 15:39 | 28.62580 | -14.41206 | 25915 ft | 494 kts | 52° |
| 2026-05-08 15:39 | 28.64536 | -14.37978 | 26344 ft | 497 kts | 52° |
| 2026-05-08 15:40 | 28.66507 | -14.34721 | 26779 ft | 501 kts | 52° |
| 2026-05-08 15:40 | 28.68488 | -14.31446 | 27196 ft | 504 kts | 52° |
| 2026-05-08 15:40 | 28.70479 | -14.28150 | 27602 ft | 507 kts | 52° |
| 2026-05-08 15:40 | 28.72485 | -14.24829 | 28008 ft | 510 kts | 52° |
| 2026-05-08 15:41 | 28.74501 | -14.21486 | 28386 ft | 513 kts | 52° |
| 2026-05-08 15:41 | 28.76527 | -14.18126 | 28777 ft | 516 kts | 52° |
| 2026-05-08 15:41 | 28.78565 | -14.14741 | 29169 ft | 519 kts | 52° |
| 2026-05-08 15:41 | 28.80616 | -14.11334 | 29531 ft | 524 kts | 52° |
| 2026-05-08 15:42 | 28.82686 | -14.07891 | 29845 ft | 528 kts | 52° |
| 2026-05-08 15:42 | 28.84764 | -14.04433 | 30218 ft | 530 kts | 52° |
| 2026-05-08 15:42 | 28.86845 | -14.00963 | 30666 ft | 528 kts | 52° |
| 2026-05-08 15:42 | 28.88916 | -13.97507 | 31139 ft | 527 kts | 52° |
| 2026-05-08 15:43 | 28.90976 | -13.94067 | 31555 ft | 526 kts | 51° |
| 2026-05-08 15:43 | 28.93045 | -13.90612 | 31929 ft | 527 kts | 51° |
| 2026-05-08 15:43 | 28.95115 | -13.87154 | 32292 ft | 528 kts | 51° |
| 2026-05-08 15:43 | 28.97180 | -13.83700 | 32699 ft | 527 kts | 52° |
| 2026-05-08 15:44 | 28.99245 | -13.80243 | 33172 ft | 525 kts | 52° |
| 2026-05-08 15:44 | 29.01301 | -13.76796 | 33606 ft | 525 kts | 52° |
| 2026-05-08 15:44 | 29.03355 | -13.73353 | 33965 ft | 525 kts | 52° |
| 2026-05-08 15:44 | 29.05413 | -13.69898 | 34263 ft | 526 kts | 51° |
| 2026-05-08 15:45 | 29.07473 | -13.66438 | 34642 ft | 524 kts | 51° |
| 2026-05-08 15:45 | 29.09490 | -13.63048 | 35047 ft | 522 kts | 51° |
| 2026-05-08 15:45 | 29.11548 | -13.59582 | 35536 ft | 518 kts | 51° |
| 2026-05-08 15:45 | 29.13541 | -13.56228 | 35796 ft | 521 kts | 51° |
| 2026-05-08 15:46 | 29.17665 | -13.49297 | 35982 ft | 531 kts | 51° |
| 2026-05-08 15:46 | 29.21943 | -13.42300 | 35990 ft | 541 kts | 51° |
| 2026-05-08 15:47 | 29.26283 | -13.35232 | 35987 ft | 543 kts | 51° |
| 2026-05-08 15:47 | 29.30608 | -13.28154 | 35979 ft | 542 kts | 51° |
| 2026-05-08 15:48 | 29.37075 | -13.17523 | 35979 ft | 542 kts | 51° |
| 2026-05-08 15:49 | 29.41362 | -13.10458 | 35961 ft | 535 kts | 51° |
| 2026-05-08 15:49 | 29.45605 | -13.03456 | 35985 ft | 535 kts | 51° |
| 2026-05-08 15:50 | 29.49863 | -12.96424 | 36011 ft | 538 kts | 51° |
| 2026-05-08 15:50 | 29.54141 | -12.89345 | 35996 ft | 540 kts | 51° |
| 2026-05-08 15:51 | 29.58423 | -12.82242 | 35986 ft | 542 kts | 51° |
| 2026-05-08 15:51 | 29.62720 | -12.75102 | 35957 ft | 543 kts | 52° |
| 2026-05-08 15:52 | 29.67012 | -12.67958 | 35973 ft | 543 kts | 52° |
| 2026-05-08 15:52 | 29.71300 | -12.60808 | 35976 ft | 543 kts | 52° |
| 2026-05-08 15:53 | 29.75580 | -12.53645 | 35972 ft | 543 kts | 52° |
| 2026-05-08 15:53 | 29.79116 | -12.47677 | 35975 ft | 542 kts | 52° |
| 2026-05-08 15:54 | 29.83361 | -12.40492 | 35973 ft | 543 kts | 53° |
| 2026-05-08 15:54 | 29.87606 | -12.33303 | 35982 ft | 542 kts | 53° |
| 2026-05-08 15:55 | 29.91845 | -12.26113 | 35964 ft | 542 kts | 53° |
| 2026-05-08 15:55 | 29.98178 | -12.15336 | 35975 ft | 541 kts | 54° |
| 2026-05-08 15:56 | 30.01372 | -12.07465 | 35975 ft | 544 kts | 73° |
| 2026-05-08 15:56 | 30.02778 | -11.98943 | 35982 ft | 540 kts | 84° |
| 2026-05-08 15:57 | 30.03741 | -11.90338 | 35973 ft | 540 kts | 85° |
| 2026-05-08 15:57 | 30.04737 | -11.81745 | 35974 ft | 540 kts | 84° |
| 2026-05-08 15:58 | 30.05783 | -11.73157 | 35982 ft | 540 kts | 84° |
| 2026-05-08 15:58 | 30.06841 | -11.64577 | 35971 ft | 540 kts | 84° |
| 2026-05-08 15:59 | 30.07887 | -11.56038 | 35986 ft | 540 kts | 84° |
| 2026-05-08 15:59 | 30.08928 | -11.47449 | 35975 ft | 541 kts | 84° |
| 2026-05-08 16:00 | 30.09963 | -11.38846 | 35976 ft | 541 kts | 84° |
| 2026-05-08 16:00 | 30.10993 | -11.30239 | 35980 ft | 541 kts | 84° |
| 2026-05-08 16:01 | 30.12018 | -11.21627 | 35981 ft | 541 kts | 84° |
| 2026-05-08 16:01 | 30.13037 | -11.13022 | 35971 ft | 541 kts | 84° |
| 2026-05-08 16:02 | 30.14051 | -11.04412 | 35980 ft | 541 kts | 84° |
| 2026-05-08 16:02 | 30.15058 | -10.95804 | 35976 ft | 540 kts | 85° |
| 2026-05-08 16:03 | 30.16058 | -10.87207 | 35967 ft | 539 kts | 85° |
| 2026-05-08 16:03 | 30.17051 | -10.78624 | 35976 ft | 539 kts | 85° |
| 2026-05-08 16:04 | 30.18037 | -10.70052 | 35979 ft | 538 kts | 85° |
| 2026-05-08 16:04 | 30.19016 | -10.61483 | 35981 ft | 538 kts | 85° |
| 2026-05-08 16:05 | 30.19983 | -10.52976 | 35972 ft | 537 kts | 85° |
| 2026-05-08 16:05 | 30.20956 | -10.44366 | 35978 ft | 536 kts | 85° |
| 2026-05-08 16:06 | 30.21909 | -10.35882 | 35979 ft | 536 kts | 85° |
| 2026-05-08 16:06 | 30.22858 | -10.27401 | 35955 ft | 521 kts | 85° |
| 2026-05-08 16:07 | 30.23316 | -10.23288 | 35727 ft | 512 kts | 85° |
| 2026-05-08 16:07 | 30.23756 | -10.19218 | 35342 ft | 507 kts | 86° |
| 2026-05-08 16:07 | 30.24180 | -10.15188 | 34983 ft | 503 kts | 86° |
| 2026-05-08 16:07 | 30.24598 | -10.11188 | 34611 ft | 500 kts | 86° |
| 2026-05-08 16:08 | 30.25012 | -10.07215 | 34234 ft | 497 kts | 86° |
| 2026-05-08 16:08 | 30.25425 | -10.03262 | 33832 ft | 494 kts | 86° |
| 2026-05-08 16:08 | 30.25836 | -9.99326 | 33404 ft | 491 kts | 86° |
| 2026-05-08 16:08 | 30.26242 | -9.95437 | 33042 ft | 487 kts | 86° |
| 2026-05-08 16:09 | 30.26651 | -9.91575 | 32786 ft | 481 kts | 85° |
| 2026-05-08 16:09 | 30.27398 | -9.87807 | 32386 ft | 482 kts | 72° |
| 2026-05-08 16:09 | 30.28693 | -9.84249 | 32033 ft | 479 kts | 62° |
| 2026-05-08 16:09 | 30.30414 | -9.80975 | 31650 ft | 475 kts | 53° |
| 2026-05-08 16:10 | 30.32324 | -9.77876 | 31300 ft | 472 kts | 52° |
| 2026-05-08 16:10 | 30.34233 | -9.74802 | 30930 ft | 469 kts | 52° |
| 2026-05-08 16:10 | 30.36126 | -9.71742 | 30577 ft | 467 kts | 53° |
| 2026-05-08 16:10 | 30.38007 | -9.68675 | 30228 ft | 465 kts | 53° |
| 2026-05-08 16:11 | 30.39868 | -9.65615 | 29833 ft | 463 kts | 53° |
| 2026-05-08 16:11 | 30.41712 | -9.62569 | 29420 ft | 460 kts | 53° |
| 2026-05-08 16:11 | 30.43538 | -9.59539 | 29034 ft | 457 kts | 53° |
| 2026-05-08 16:11 | 30.45351 | -9.56525 | 28652 ft | 455 kts | 54° |
| 2026-05-08 16:12 | 30.47154 | -9.53525 | 28273 ft | 452 kts | 54° |
| 2026-05-08 16:12 | 30.48944 | -9.50546 | 27912 ft | 449 kts | 54° |
| 2026-05-08 16:12 | 30.50724 | -9.47582 | 27555 ft | 447 kts | 54° |
| 2026-05-08 16:12 | 30.52472 | -9.44673 | 27180 ft | 445 kts | 54° |
| 2026-05-08 16:13 | 30.54259 | -9.41697 | 26812 ft | 442 kts | 54° |
| 2026-05-08 16:13 | 30.55984 | -9.38817 | 26473 ft | 440 kts | 54° |
| 2026-05-08 16:13 | 30.57723 | -9.35910 | 26102 ft | 437 kts | 54° |
| 2026-05-08 16:13 | 30.59449 | -9.33024 | 25753 ft | 434 kts | 54° |
| 2026-05-08 16:14 | 30.61164 | -9.30157 | 25410 ft | 432 kts | 55° |
| 2026-05-08 16:14 | 30.62877 | -9.27293 | 25092 ft | 430 kts | 55° |
| 2026-05-08 16:14 | 30.64578 | -9.24445 | 24785 ft | 428 kts | 54° |
| 2026-05-08 16:14 | 30.66267 | -9.21616 | 24452 ft | 424 kts | 55° |
| 2026-05-08 16:15 | 30.67938 | -9.18813 | 24135 ft | 421 kts | 55° |
| 2026-05-08 16:15 | 30.69602 | -9.16019 | 23777 ft | 420 kts | 55° |
| 2026-05-08 16:15 | 30.71260 | -9.13230 | 23398 ft | 420 kts | 55° |
| 2026-05-08 16:15 | 30.72919 | -9.10444 | 22981 ft | 417 kts | 55° |
| 2026-05-08 16:16 | 30.74563 | -9.07680 | 22644 ft | 414 kts | 55° |
| 2026-05-08 16:16 | 30.76198 | -9.04930 | 22287 ft | 412 kts | 55° |
| 2026-05-08 16:16 | 30.77818 | -9.02201 | 21883 ft | 408 kts | 55° |
| 2026-05-08 16:16 | 30.79418 | -8.99504 | 21621 ft | 403 kts | 55° |
| 2026-05-08 16:17 | 30.81003 | -8.96832 | 21273 ft | 401 kts | 55° |
| 2026-05-08 16:17 | 30.82052 | -8.95063 | 21044 ft | 400 kts | 55° |
| 2026-05-08 16:17 | 30.84153 | -8.91515 | 20582 ft | 397 kts | 55° |
| 2026-05-08 16:17 | 30.85716 | -8.88872 | 20257 ft | 395 kts | 55° |
| 2026-05-08 16:18 | 30.87272 | -8.86243 | 19902 ft | 393 kts | 55° |
| 2026-05-08 16:18 | 30.88819 | -8.83627 | 19571 ft | 391 kts | 55° |
| 2026-05-08 16:18 | 30.90362 | -8.81033 | 19225 ft | 389 kts | 54° |
| 2026-05-08 16:18 | 30.91928 | -8.78465 | 18867 ft | 388 kts | 54° |
| 2026-05-08 16:19 | 30.93495 | -8.75921 | 18549 ft | 385 kts | 54° |
| 2026-05-08 16:19 | 30.95056 | -8.73394 | 18241 ft | 384 kts | 54° |
| 2026-05-08 16:19 | 30.96611 | -8.70870 | 17795 ft | 382 kts | 54° |
| 2026-05-08 16:19 | 30.98142 | -8.68387 | 17435 ft | 373 kts | 54° |
| 2026-05-08 16:20 | 30.99641 | -8.65948 | 17102 ft | 368 kts | 54° |
| 2026-05-08 16:20 | 31.01107 | -8.63558 | 16796 ft | 366 kts | 55° |
| 2026-05-08 16:20 | 31.02602 | -8.61118 | 16442 ft | 364 kts | 55° |
| 2026-05-08 16:20 | 31.04068 | -8.58724 | 16113 ft | 361 kts | 55° |
| 2026-05-08 16:21 | 31.05523 | -8.56347 | 15798 ft | 358 kts | 56° |
| 2026-05-08 16:21 | 31.06946 | -8.54021 | 15482 ft | 355 kts | 56° |
| 2026-05-08 16:21 | 31.08374 | -8.51682 | 15163 ft | 352 kts | 56° |
| 2026-05-08 16:21 | 31.09790 | -8.49363 | 14839 ft | 350 kts | 56° |
| 2026-05-08 16:22 | 31.11219 | -8.47025 | 14512 ft | 348 kts | 56° |
| 2026-05-08 16:22 | 31.12603 | -8.44757 | 14209 ft | 347 kts | 56° |
| 2026-05-08 16:22 | 31.14002 | -8.42456 | 13851 ft | 346 kts | 56° |
| 2026-05-08 16:22 | 31.15390 | -8.40174 | 13508 ft | 344 kts | 56° |
| 2026-05-08 16:23 | 31.16773 | -8.37900 | 13191 ft | 342 kts | 56° |
| 2026-05-08 16:23 | 31.18147 | -8.35639 | 12831 ft | 339 kts | 56° |
| 2026-05-08 16:23 | 31.19495 | -8.33419 | 12504 ft | 331 kts | 56° |
| 2026-05-08 16:23 | 31.20807 | -8.31258 | 12201 ft | 322 kts | 56° |
| 2026-05-08 16:24 | 31.22095 | -8.29132 | 11917 ft | 319 kts | 56° |
| 2026-05-08 16:24 | 31.23370 | -8.27032 | 11629 ft | 316 kts | 56° |
| 2026-05-08 16:24 | 31.24640 | -8.24941 | 11320 ft | 315 kts | 56° |
| 2026-05-08 16:24 | 31.25900 | -8.22866 | 11029 ft | 313 kts | 56° |
| 2026-05-08 16:25 | 31.27156 | -8.20793 | 10722 ft | 311 kts | 57° |
| 2026-05-08 16:25 | 31.28403 | -8.18734 | 10427 ft | 310 kts | 57° |
| 2026-05-08 16:25 | 31.29645 | -8.16682 | 10130 ft | 308 kts | 57° |
| 2026-05-08 16:25 | 31.30870 | -8.14658 | 9980 ft | 301 kts | 57° |
| 2026-05-08 16:26 | 31.32072 | -8.12669 | 9688 ft | 299 kts | 57° |
| 2026-05-08 16:26 | 31.33267 | -8.10691 | 9379 ft | 297 kts | 57° |
| 2026-05-08 16:26 | 31.34457 | -8.08719 | 9083 ft | 296 kts | 57° |
| 2026-05-08 16:26 | 31.35641 | -8.06757 | 8782 ft | 294 kts | 56° |
| 2026-05-08 16:27 | 31.36817 | -8.04807 | 8496 ft | 292 kts | 56° |
| 2026-05-08 16:27 | 31.37984 | -8.02871 | 8217 ft | 290 kts | 56° |
| 2026-05-08 16:27 | 31.39145 | -8.00947 | 7925 ft | 289 kts | 55° |
| 2026-05-08 16:27 | 31.40298 | -7.99032 | 7638 ft | 287 kts | 55° |
| 2026-05-08 16:28 | 31.41443 | -7.97129 | 7353 ft | 285 kts | 55° |
| 2026-05-08 16:28 | 31.42583 | -7.95234 | 7081 ft | 284 kts | 54° |
| 2026-05-08 16:28 | 31.43718 | -7.93347 | 6798 ft | 283 kts | 54° |
| 2026-05-08 16:28 | 31.44845 | -7.91471 | 6519 ft | 280 kts | 53° |
| 2026-05-08 16:29 | 31.45963 | -7.89611 | 6254 ft | 278 kts | 52° |
| 2026-05-08 16:29 | 31.47069 | -7.87774 | 6031 ft | 274 kts | 53° |
| 2026-05-08 16:29 | 31.48161 | -7.85954 | 5771 ft | 272 kts | 53° |
| 2026-05-08 16:29 | 31.49239 | -7.84158 | 5589 ft | 266 kts | 53° |
| 2026-05-08 16:30 | 31.50481 | -7.82639 | 5431 ft | 255 kts | 26° |
| 2026-05-08 16:30 | 31.52123 | -7.81980 | 5244 ft | 247 kts | 7° |
| 2026-05-08 16:30 | 31.53817 | -7.81720 | 4993 ft | 246 kts | 3° |
| 2026-05-08 16:30 | 31.55516 | -7.81535 | 4775 ft | 243 kts | 360° |
| 2026-05-08 16:31 | 31.57078 | -7.81944 | 4678 ft | 224 kts | 323° |
| 2026-05-08 16:31 | 31.58016 | -7.83253 | 4596 ft | 204 kts | 295° |
| 2026-05-08 16:31 | 31.58601 | -7.84721 | 4435 ft | 194 kts | 295° |
| 2026-05-08 16:31 | 31.59035 | -7.86180 | 4207 ft | 187 kts | 281° |
| 2026-05-08 16:32 | 31.59250 | -7.87676 | 3941 ft | 185 kts | 278° |
| 2026-05-08 16:32 | 31.59411 | -7.89154 | 3722 ft | 180 kts | 276° |
| 2026-05-08 16:32 | 31.59543 | -7.90571 | 3483 ft | 169 kts | 276° |
| 2026-05-08 16:32 | 31.59661 | -7.91895 | 3270 ft | 163 kts | 276° |
| 2026-05-08 16:33 | 31.59771 | -7.93164 | 3048 ft | 151 kts | 276° |
| 2026-05-08 16:33 | 31.59876 | -7.94356 | 2866 ft | 146 kts | 274° |
| 2026-05-08 16:33 | 31.59981 | -7.95549 | 2719 ft | 151 kts | 275° |
| 2026-05-08 16:33 | 31.60089 | -7.96802 | 2470 ft | 154 kts | 276° |
| 2026-05-08 16:34 | 31.60189 | -7.98016 | 2277 ft | 147 kts | 275° |
| 2026-05-08 16:34 | 31.60289 | -7.99184 | 2084 ft | 147 kts | 275° |
| 2026-05-08 16:34 | 31.60408 | -8.00411 | 1902 ft | 154 kts | 274° |
| 2026-05-08 16:34 | 31.60512 | -8.01651 | 1682 ft | 151 kts | 275° |
| 2026-05-08 16:35 | 31.60618 | -8.02819 | 1559 ft | 132 kts | 276° |
| 2026-05-08 16:35 | 31.60704 | -8.03780 | 1540 ft | 100 kts | 275° |
| 2026-05-08 16:35 | 31.60743 | -8.04294 | 1530 ft | 37 kts | 275° |
| 2026-05-08 16:35 | 31.60683 | -8.04394 | 1534 ft | 13 kts | 188° |
| 2026-05-08 16:36 | 31.60598 | -8.04387 | 1540 ft | 13 kts | 134° |
| 2026-05-08 16:36 | 31.60572 | -8.04253 | 1547 ft | 22 kts | 95° |
| 2026-05-08 16:36 | 31.60555 | -8.04051 | 1537 ft | 27 kts | 96° |
| 2026-05-08 16:36 | 31.60535 | -8.03835 | 1547 ft | 26 kts | 98° |
| 2026-05-08 16:37 | 31.60516 | -8.03634 | 1545 ft | 24 kts | 96° |
| 2026-05-08 16:37 | 31.60499 | -8.03445 | 1541 ft | 23 kts | 96° |
| 2026-05-08 16:37 | 31.60484 | -8.03264 | 1544 ft | 22 kts | 96° |
| 2026-05-08 16:37 | 31.60470 | -8.03087 | 1540 ft | 21 kts | 95° |
| 2026-05-08 16:38 | 31.60455 | -8.02915 | 1538 ft | 21 kts | 96° |
| 2026-05-08 16:38 | 31.60436 | -8.02726 | 1548 ft | 26 kts | 96° |
| 2026-05-08 16:38 | 31.60420 | -8.02518 | 1546 ft | 22 kts | 95° |
| 2026-05-08 16:38 | 31.60404 | -8.02339 | 1547 ft | 22 kts | 96° |
| 2026-05-08 16:39 | 31.60363 | -8.02200 | 1544 ft | 15 kts | 167° |
| 2026-05-08 16:39 | 31.60282 | -8.02202 | 1544 ft | 10 kts | 186° |
| 2026-05-08 16:39 | 31.60222 | -8.02209 | 1539 ft | 8 kts | 185° |
| 2026-05-08 16:39 | 31.60198 | -8.02257 | 1548 ft | 7 kts | 278° |
| 2026-05-08 16:40 | 31.60202 | -8.02299 | 1548 ft | 1 kts | 275° |
| 2026-05-08 16:40 | 31.60202 | -8.02301 | 1548 ft | 0 kts | 275° |